Lake City, Minnesota
Current Conditions -  °F | °C
As of 5:11 AM on Wednesday 26 Nov 2014 (Local Time) from KRGK Reporting Station
Overcast Overcast  
Wind Chill: 15°   Ceiling: 5000
Heat Index: 23°   Visibility: 10mi
Dew Point: 14°   Wind: 7mph
Humidity: 68%   Direction: 90°E
Pressure: 30.05"   Gusts: NA
Location:  44.45°N, 92.27°W
Report Text: KRGK 261111Z AUTO 09006KT 10SM OVC050 M05/M10 A3005 RMK AO2
Loading
Personal Weather Stations






























Interactive Weather Map New forecast layout! Learn more

10-Day Weather Forecast

Advertisements
Track Severe Weather on mobile